createdAt,value
2022-08-17T00:00:43.532Z,72063.53
2022-08-17T00:01:26.273Z,72063.53
2022-08-17T00:02:08.976Z,72059.53
2022-08-17T00:03:00.851Z,72063.53
2022-08-17T00:03:39.364Z,72067.53
2022-08-17T00:04:12.516Z,72063.53
2022-08-17T00:04:50.733Z,72067.53
2022-08-17T00:05:23.439Z,72067.53
2022-08-17T00:06:00.615Z,72061.53
2022-08-17T00:06:32.986Z,72067.53
2022-08-17T00:07:05.398Z,72063.53
2022-08-17T00:07:40.360Z,72065.53
2022-08-17T00:08:16.962Z,72065.53
2022-08-17T00:08:53.788Z,72059.53
2022-08-17T00:09:26.095Z,72063.53
2022-08-17T00:09:58.442Z,72063.53
2022-08-17T00:10:31.142Z,72063.53
2022-08-17T00:11:09.014Z,72063.53
2022-08-17T00:11:43.922Z,72059.53
2022-08-17T00:12:43.054Z,72063.53
2022-08-17T00:13:24.010Z,72061.53
2022-08-17T00:13:58.254Z,72063.53
2022-08-17T00:14:30.747Z,72057.56
2022-08-17T00:15:03.968Z,72063.53
2022-08-17T00:15:38.880Z,72063.53
2022-08-17T00:16:13.762Z,72067.53
2022-08-17T00:16:57.045Z,72067.53
2022-08-17T00:17:32.607Z,72063.53
2022-08-17T00:18:53.808Z,72069.53
2022-08-17T00:19:07.834Z,72067.53
2022-08-17T00:19:40.907Z,72071.53
2022-08-17T00:20:14.166Z,72067.53
2022-08-17T00:20:50.119Z,72069.53
2022-08-17T00:21:25.358Z,72071.53
2022-08-17T00:22:34.586Z,72073.50
2022-08-17T00:23:05.846Z,72071.53
2022-08-17T00:23:47.837Z,72075.50
2022-08-17T00:24:21.814Z,72071.53
2022-08-17T00:24:57.177Z,72067.53
2022-08-17T00:25:29.522Z,72071.53
2022-08-17T00:26:04.537Z,72067.53
2022-08-17T00:26:44.744Z,72063.53
2022-08-17T00:27:17.994Z,72061.53
2022-08-17T00:27:50.346Z,72069.53
2022-08-17T00:28:25.815Z,72063.53
2022-08-17T00:28:58.146Z,72067.53
2022-08-17T00:29:30.551Z,72059.53
2022-08-17T00:30:03.791Z,72055.56
2022-08-17T00:30:50.784Z,72061.53
2022-08-17T00:31:24.209Z,72057.56
2022-08-17T00:31:56.577Z,72055.56
2022-08-17T00:33:13.602Z,72061.53
2022-08-17T00:33:26.845Z,72055.56
2022-08-17T00:33:59.636Z,72059.53
2022-08-17T00:34:34.663Z,72055.56
2022-08-17T00:35:10.101Z,72059.53
2022-08-17T00:35:43.417Z,72059.53
2022-08-17T00:36:18.918Z,72055.56
2022-08-17T00:36:51.338Z,72059.53
2022-08-17T00:37:23.659Z,72059.53
2022-08-17T00:37:56.024Z,72057.56
2022-08-17T00:38:32.241Z,72055.56
2022-08-17T00:39:07.176Z,72059.53
2022-08-17T00:39:40.001Z,72055.56
2022-08-17T00:40:17.291Z,72053.56
2022-08-17T00:40:51.808Z,72055.56
2022-08-17T00:41:28.946Z,72051.56
2022-08-17T00:42:16.017Z,72055.56
2022-08-17T00:42:49.254Z,72053.56
2022-08-17T00:43:26.515Z,72051.56
2022-08-17T00:44:03.591Z,72055.56
2022-08-17T00:44:35.924Z,72059.53
2022-08-17T00:45:10.855Z,72055.56
2022-08-17T00:45:45.939Z,72053.56
2022-08-17T00:46:22.122Z,72049.56
2022-08-17T00:46:57.443Z,72051.56
2022-08-17T00:47:29.743Z,72055.56
2022-08-17T00:48:02.117Z,72053.56
2022-08-17T00:48:37.646Z,72047.56
2022-08-17T00:49:12.530Z,72047.56
2022-08-17T00:49:44.852Z,72047.56
2022-08-17T00:50:22.061Z,72045.56
2022-08-17T00:50:57.934Z,72045.56
2022-08-17T00:51:34.570Z,72049.56
2022-08-17T00:52:15.709Z,72045.56
2022-08-17T00:52:56.855Z,72041.59
2022-08-17T00:53:31.593Z,72039.59
2022-08-17T00:54:26.134Z,72041.59
2022-08-17T00:54:59.109Z,72043.59
2022-08-17T00:55:32.990Z,72041.59
2022-08-17T00:56:10.159Z,72047.56
2022-08-17T00:56:45.242Z,72043.59
2022-08-17T00:57:20.339Z,72043.59
2022-08-17T00:57:59.694Z,72043.59
2022-08-17T00:58:36.286Z,72037.59
2022-08-17T00:59:10.034Z,72047.56
2022-08-17T00:59:55.963Z,72043.59
2022-08-17T01:00:39.373Z,72043.59
2022-08-17T01:01:21.867Z,72037.59
2022-08-17T01:01:54.597Z,72035.59
2022-08-17T01:02:28.334Z,72037.59
2022-08-17T01:03:06.764Z,72041.59
2022-08-17T01:03:39.521Z,72041.59
2022-08-17T01:04:13.635Z,72037.59
2022-08-17T01:04:51.138Z,72037.59
2022-08-17T01:05:25.672Z,72043.59
2022-08-17T01:06:00.137Z,72035.59
2022-08-17T01:06:35.630Z,72033.59
2022-08-17T01:07:08.345Z,72043.59
2022-08-17T01:07:40.851Z,72041.59
2022-08-17T01:08:19.758Z,72041.59
2022-08-17T01:08:57.316Z,72043.59
2022-08-17T01:09:33.649Z,72039.59
2022-08-17T01:10:58.194Z,72039.59
2022-08-17T01:11:05.515Z,72041.59
2022-08-17T01:11:40.754Z,72043.59
2022-08-17T01:12:13.216Z,72037.59
2022-08-17T01:12:45.654Z,72043.59
2022-08-17T01:13:20.897Z,72045.56
2022-08-17T01:13:54.094Z,72035.59
2022-08-17T01:14:26.777Z,72051.56
2022-08-17T01:15:01.699Z,72047.56
2022-08-17T01:15:36.890Z,72045.56
2022-08-17T01:16:16.214Z,72047.56
2022-08-17T01:16:52.618Z,72047.56
2022-08-17T01:17:24.974Z,72043.59
2022-08-17T01:17:57.538Z,72043.59
2022-08-17T01:18:32.491Z,72035.59
2022-08-17T01:19:07.041Z,72041.59
2022-08-17T01:19:41.970Z,72043.59
2022-08-17T01:20:17.014Z,72041.59
2022-08-17T01:20:51.364Z,72043.59
2022-08-17T01:21:29.518Z,72035.59
2022-08-17T01:22:09.005Z,72041.59
2022-08-17T01:22:43.995Z,72043.59
2022-08-17T01:23:20.411Z,72043.59
2022-08-17T01:23:56.135Z,72045.56
2022-08-17T01:24:29.206Z,72043.59
2022-08-17T01:25:05.189Z,72047.56
2022-08-17T01:25:40.607Z,72047.56
2022-08-17T01:26:13.149Z,72047.56
2022-08-17T01:26:49.152Z,72049.56
2022-08-17T01:27:21.724Z,72051.56
2022-08-17T01:27:54.109Z,72053.56
2022-08-17T01:28:36.401Z,72047.56
2022-08-17T01:29:24.497Z,72047.56
2022-08-17T01:30:02.611Z,72049.56
2022-08-17T01:30:57.142Z,72047.56
2022-08-17T01:31:29.926Z,72047.56
2022-08-17T01:32:07.481Z,72045.56
2022-08-17T01:32:40.718Z,72047.56
2022-08-17T01:33:13.189Z,72045.56
2022-08-17T01:33:48.256Z,72047.56
2022-08-17T01:34:21.151Z,72051.56
2022-08-17T01:34:54.255Z,72047.56
2022-08-17T01:35:26.711Z,72043.59
2022-08-17T01:36:01.954Z,72047.56
2022-08-17T01:36:34.289Z,72049.56
2022-08-17T01:37:06.612Z,72047.56
2022-08-17T01:37:43.667Z,72047.56
2022-08-17T01:38:19.840Z,72047.56
2022-08-17T01:39:02.229Z,72045.56
2022-08-17T01:39:37.193Z,72047.56
2022-08-17T01:40:15.530Z,72043.59
2022-08-17T01:40:57.373Z,72047.56
2022-08-17T01:41:30.318Z,72043.59
2022-08-17T01:42:07.098Z,72037.59
2022-08-17T01:42:46.085Z,72047.56
2022-08-17T01:43:22.835Z,72043.59
2022-08-17T01:43:57.362Z,72045.56
2022-08-17T01:44:32.387Z,72039.59
2022-08-17T01:45:08.461Z,72045.56
2022-08-17T01:45:44.599Z,72035.59
2022-08-17T01:46:24.681Z,72039.59
2022-08-17T01:46:57.027Z,72031.59
2022-08-17T01:47:29.838Z,72031.59
2022-08-17T01:48:06.391Z,72029.63
2022-08-17T01:48:39.059Z,72033.59
2022-08-17T01:49:12.331Z,72031.59
2022-08-17T01:49:47.719Z,72035.59
2022-08-17T01:50:22.853Z,72033.59
2022-08-17T01:50:55.167Z,72031.59
2022-08-17T01:51:33.642Z,72033.59
2022-08-17T01:52:08.375Z,72031.59
2022-08-17T01:52:41.085Z,72033.59
2022-08-17T01:53:18.322Z,72031.59
2022-08-17T01:53:55.961Z,72031.59
2022-08-17T01:54:31.060Z,72031.59
2022-08-17T01:55:04.892Z,72031.59
2022-08-17T01:55:41.035Z,72027.63
2022-08-17T01:56:18.179Z,72029.63
2022-08-17T01:56:51.651Z,72029.63
2022-08-17T01:57:23.984Z,72033.59
2022-08-17T01:57:59.034Z,72031.59
2022-08-17T01:58:32.866Z,72025.63
2022-08-17T01:59:05.333Z,72029.63
2022-08-17T01:59:40.294Z,72031.59
2022-08-17T02:00:14.161Z,72029.63
2022-08-17T02:01:00.250Z,72027.63
2022-08-17T02:01:37.557Z,72027.63
2022-08-17T02:02:10.470Z,72027.63
2022-08-17T02:02:46.031Z,72027.63
2022-08-17T02:03:21.084Z,72027.63
2022-08-17T02:03:59.574Z,72029.63
2022-08-17T02:04:34.457Z,72027.63
2022-08-17T02:05:10.726Z,72033.59
2022-08-17T02:05:43.090Z,72027.63
2022-08-17T02:06:27.650Z,72027.63
2022-08-17T02:07:03.224Z,72027.63
2022-08-17T02:07:59.709Z,72033.59
2022-08-17T02:08:39.528Z,72027.63
2022-08-17T02:09:32.682Z,72031.59
2022-08-17T02:10:18.961Z,72027.63
2022-08-17T02:10:52.526Z,72021.63
2022-08-17T02:11:24.996Z,72023.63
2022-08-17T02:12:37.233Z,72019.63
2022-08-17T02:12:56.349Z,72019.63
2022-08-17T02:13:29.891Z,72027.63
2022-08-17T02:14:05.287Z,72023.63
2022-08-17T02:14:37.606Z,72027.63
2022-08-17T02:15:12.581Z,72019.63
2022-08-17T02:15:47.714Z,72025.63
2022-08-17T02:16:20.197Z,72023.63
2022-08-17T02:16:53.211Z,72027.63
2022-08-17T02:17:28.208Z,72021.63
2022-08-17T02:18:01.579Z,72017.63
2022-08-17T02:18:33.901Z,72023.63
2022-08-17T02:19:10.682Z,72023.63
2022-08-17T02:19:43.053Z,72019.63
2022-08-17T02:20:15.618Z,72011.66
2022-08-17T02:21:10.946Z,72019.63
2022-08-17T02:21:47.447Z,72019.63
2022-08-17T02:22:19.997Z,72015.66
2022-08-17T02:22:54.986Z,72015.66
2022-08-17T02:23:29.571Z,72019.63
2022-08-17T02:24:02.516Z,72019.63
2022-08-17T02:25:00.318Z,72015.66
2022-08-17T02:25:34.182Z,72009.66
2022-08-17T02:26:07.994Z,72015.66
2022-08-17T02:26:43.146Z,72015.66
2022-08-17T02:27:15.498Z,72015.66
2022-08-17T02:27:47.932Z,72015.66
2022-08-17T02:28:22.885Z,72017.63
2022-08-17T02:28:55.674Z,72015.66
2022-08-17T02:29:28.015Z,72011.66
2022-08-17T02:30:02.939Z,72013.66
2022-08-17T02:31:01.206Z,72011.66
2022-08-17T02:31:27.738Z,72015.66
2022-08-17T02:32:02.780Z,72015.66
2022-08-17T02:32:35.111Z,72011.66
2022-08-17T02:33:09.386Z,72011.66
2022-08-17T02:33:44.468Z,72011.66
2022-08-17T02:34:16.864Z,72015.66
2022-08-17T02:34:49.314Z,72011.66
2022-08-17T02:35:24.626Z,72011.66
2022-08-17T02:35:57.991Z,72009.66
2022-08-17T02:36:30.348Z,72003.66
2022-08-17T02:37:05.401Z,72007.66
2022-08-17T02:37:37.721Z,72011.66
2022-08-17T02:38:10.384Z,72011.66
2022-08-17T02:38:45.693Z,72011.66
2022-08-17T02:39:18.754Z,72013.66
2022-08-17T02:39:53.904Z,72011.66
2022-08-17T02:40:32.799Z,72011.66
2022-08-17T02:41:09.401Z,72009.66
2022-08-17T02:41:41.718Z,72003.66
2022-08-17T02:42:17.029Z,72011.66
2022-08-17T02:42:49.806Z,72007.66
2022-08-17T02:43:22.230Z,72007.66
2022-08-17T02:43:57.150Z,72011.66
2022-08-17T02:44:39.358Z,72007.66
2022-08-17T02:45:17.694Z,72007.66
2022-08-17T02:45:50.191Z,72007.66
2022-08-17T02:46:23.525Z,72003.66
2022-08-17T02:46:58.438Z,72005.66
2022-08-17T02:47:31.370Z,72003.66
2022-08-17T02:48:04.765Z,72007.66
2022-08-17T02:48:40.025Z,72007.66
2022-08-17T02:49:12.378Z,72007.66
2022-08-17T02:49:54.281Z,72007.66
2022-08-17T02:50:30.674Z,72007.66
2022-08-17T02:51:03.634Z,72003.66
2022-08-17T02:51:36.259Z,72007.66
2022-08-17T02:52:08.766Z,72007.66
2022-08-17T02:52:47.441Z,72011.66
2022-08-17T02:53:35.545Z,72005.66
2022-08-17T02:54:40.235Z,72019.63
2022-08-17T02:55:06.718Z,72027.63
2022-08-17T02:55:41.642Z,72027.63
2022-08-17T02:56:16.632Z,72035.59
2022-08-17T02:56:48.969Z,72031.59
2022-08-17T02:57:21.465Z,72035.59
2022-08-17T02:57:57.006Z,72041.59
2022-08-17T02:58:34.635Z,72041.59
2022-08-17T02:59:07.964Z,72043.59
2022-08-17T02:59:48.819Z,72047.56
2022-08-17T03:00:24.322Z,72047.56
2022-08-17T03:01:00.886Z,72047.56
2022-08-17T03:01:36.094Z,72049.56
2022-08-17T03:02:11.260Z,72047.56
2022-08-17T03:02:47.537Z,72049.56
2022-08-17T03:03:19.869Z,72053.56
2022-08-17T03:03:52.454Z,72063.53
2022-08-17T03:04:28.997Z,72059.53
2022-08-17T03:05:02.534Z,72067.53
2022-08-17T03:05:40.070Z,72067.53
2022-08-17T03:06:16.637Z,72067.53
2022-08-17T03:06:51.641Z,72063.53
2022-08-17T03:07:24.135Z,72067.53
2022-08-17T03:08:13.239Z,72071.53
2022-08-17T03:08:46.161Z,72071.53
2022-08-17T03:09:21.121Z,72071.53
2022-08-17T03:09:54.139Z,72077.50
2022-08-17T03:10:30.148Z,72075.50
2022-08-17T03:11:02.863Z,72071.53
2022-08-17T03:11:39.402Z,72075.50
2022-08-17T03:12:13.798Z,72073.50
2022-08-17T03:12:46.722Z,72071.53
2022-08-17T03:13:22.336Z,72077.50
2022-08-17T03:13:57.890Z,72075.50
2022-08-17T03:14:32.674Z,72075.50
2022-08-17T03:15:12.899Z,72079.50
2022-08-17T03:15:46.415Z,72077.50
2022-08-17T03:16:21.307Z,72079.50
2022-08-17T03:16:59.454Z,72079.50
2022-08-17T03:17:31.843Z,72075.50
2022-08-17T03:18:04.627Z,72083.50
2022-08-17T03:18:43.428Z,72083.50
2022-08-17T03:19:15.904Z,72079.50
2022-08-17T03:19:48.264Z,72083.50
2022-08-17T03:20:24.970Z,72083.50
2022-08-17T03:21:04.619Z,72083.50
2022-08-17T03:21:37.601Z,72087.47
2022-08-17T03:22:36.128Z,72083.50
2022-08-17T03:23:04.989Z,72085.50
2022-08-17T03:23:41.267Z,72089.47
2022-08-17T03:24:15.215Z,72091.47
2022-08-17T03:24:53.004Z,72091.47
2022-08-17T03:25:32.132Z,72093.47
2022-08-17T03:26:12.371Z,72095.47
2022-08-17T03:26:50.501Z,72095.47
2022-08-17T03:27:26.007Z,72091.47
2022-08-17T03:28:00.924Z,72101.44
2022-08-17T03:28:35.965Z,72099.47
2022-08-17T03:29:10.249Z,72101.44
2022-08-17T03:29:42.632Z,72099.47
2022-08-17T03:30:29.651Z,72103.44
2022-08-17T03:31:06.402Z,72105.44
2022-08-17T03:31:44.403Z,72103.44
2022-08-17T03:32:20.840Z,72113.44
2022-08-17T03:32:55.059Z,72105.44
2022-08-17T03:33:27.593Z,72109.44
2022-08-17T03:34:02.763Z,72111.44
2022-08-17T03:34:35.091Z,72107.44
2022-08-17T03:35:08.914Z,72107.44
2022-08-17T03:35:46.291Z,72103.44
2022-08-17T03:36:23.774Z,72107.44
2022-08-17T03:36:59.385Z,72107.44
2022-08-17T03:37:33.354Z,72107.44
2022-08-17T03:38:06.428Z,72105.44
2022-08-17T03:38:41.982Z,72103.44
2022-08-17T03:39:15.289Z,72105.44
2022-08-17T03:39:47.883Z,72103.44
2022-08-17T03:40:55.183Z,72105.44
2022-08-17T03:41:20.313Z,72107.44
2022-08-17T03:41:55.266Z,72105.44
2022-08-17T03:42:32.513Z,72103.44
2022-08-17T03:43:06.857Z,72107.44
2022-08-17T03:43:41.852Z,72105.44
2022-08-17T03:44:14.280Z,72107.44
2022-08-17T03:44:49.088Z,72107.44
2022-08-17T03:45:43.555Z,72103.44
2022-08-17T03:46:34.947Z,72111.44
2022-08-17T03:47:22.874Z,72107.44
2022-08-17T03:48:11.767Z,72107.44
2022-08-17T03:48:59.051Z,72111.44
2022-08-17T03:49:46.359Z,72107.44
2022-08-17T03:50:35.731Z,72115.44
2022-08-17T03:51:26.778Z,72111.44
2022-08-17T03:52:23.865Z,72107.44
2022-08-17T03:53:13.665Z,72111.44
2022-08-17T03:54:06.412Z,72107.44
2022-08-17T03:54:58.864Z,72113.44
2022-08-17T03:55:49.022Z,72107.44
2022-08-17T03:56:39.184Z,72113.44
2022-08-17T03:57:14.413Z,72111.44
2022-08-17T03:57:46.768Z,72111.44
2022-08-17T03:58:21.028Z,72115.44
2022-08-17T03:58:57.123Z,72115.44
2022-08-17T03:59:30.051Z,72115.44
2022-08-17T04:00:05.226Z,72115.44
2022-08-17T04:00:46.119Z,72115.44
2022-08-17T04:01:18.600Z,72115.44
2022-08-17T04:01:55.824Z,72115.44
2022-08-17T04:02:31.969Z,72119.41
2022-08-17T04:03:04.659Z,72117.41
2022-08-17T04:03:39.586Z,72119.41
2022-08-17T04:04:12.775Z,72119.41
2022-08-17T04:04:45.571Z,72121.41
2022-08-17T04:05:28.184Z,72123.41
2022-08-17T04:06:02.374Z,72115.44
2022-08-17T04:06:34.722Z,72119.41
2022-08-17T04:07:12.765Z,72119.41
2022-08-17T04:07:45.272Z,72119.41
2022-08-17T04:08:18.370Z,72115.44
2022-08-17T04:08:53.666Z,72119.41
2022-08-17T04:09:26.124Z,72121.41
2022-08-17T04:10:02.330Z,72119.41
2022-08-17T04:10:45.034Z,72117.41
2022-08-17T04:11:18.715Z,72119.41
2022-08-17T04:11:54.971Z,72117.41
2022-08-17T04:12:33.573Z,72119.41
2022-08-17T04:13:06.609Z,72115.44
2022-08-17T04:13:40.505Z,72121.41
2022-08-17T04:14:19.651Z,72123.41
2022-08-17T04:14:54.665Z,72121.41
2022-08-17T04:15:28.373Z,72119.41
2022-08-17T04:16:05.375Z,72121.41
2022-08-17T04:16:40.317Z,72117.41
2022-08-17T04:17:12.762Z,72119.41
2022-08-17T04:17:49.330Z,72119.41
2022-08-17T04:18:28.922Z,72119.41
2022-08-17T04:19:08.133Z,72125.41
2022-08-17T04:19:43.834Z,72123.41
2022-08-17T04:20:21.868Z,72119.41
2022-08-17T04:20:54.342Z,72123.41
2022-08-17T04:21:29.670Z,72127.41
2022-08-17T04:22:02.242Z,72127.41
2022-08-17T04:22:34.616Z,72127.41
2022-08-17T04:23:13.495Z,72127.41
2022-08-17T04:23:49.338Z,72127.41
2022-08-17T04:24:22.190Z,72127.41
2022-08-17T04:24:57.178Z,72127.41
2022-08-17T04:25:39.719Z,72129.41
2022-08-17T04:26:52.925Z,72127.41
2022-08-17T04:27:12.383Z,72131.38
2022-08-17T04:27:44.762Z,72131.38
2022-08-17T04:28:18.288Z,72129.41
2022-08-17T04:28:53.308Z,72127.41
2022-08-17T04:29:26.212Z,72123.41
2022-08-17T04:30:21.254Z,72129.41
2022-08-17T04:30:53.559Z,72127.41
2022-08-17T04:31:27.089Z,72135.38
2022-08-17T04:32:02.267Z,72131.38
2022-08-17T04:33:00.689Z,72127.41
2022-08-17T04:33:42.718Z,72135.38
2022-08-17T04:34:15.078Z,72141.38
2022-08-17T04:34:53.901Z,72135.38
2022-08-17T04:35:31.704Z,72139.38
2022-08-17T04:36:06.069Z,72139.38
2022-08-17T04:36:41.142Z,72127.41
2022-08-17T04:37:22.710Z,72113.44
2022-08-17T04:37:55.196Z,72107.44
2022-08-17T04:38:33.714Z,72097.47
2022-08-17T04:39:06.080Z,72095.47
2022-08-17T04:39:38.454Z,72091.47
2022-08-17T04:40:39.074Z,72089.47
2022-08-17T04:41:27.222Z,72089.47
2022-08-17T04:42:17.124Z,72085.50
2022-08-17T04:43:07.379Z,72085.50
2022-08-17T04:43:41.836Z,72079.50
2022-08-17T04:44:15.398Z,72079.50
2022-08-17T04:45:11.232Z,72079.50
2022-08-17T04:45:55.486Z,72079.50
2022-08-17T04:46:34.673Z,72079.50
2022-08-17T04:47:07.357Z,72081.50
2022-08-17T04:47:43.063Z,72079.50
2022-08-17T04:48:18.014Z,72083.50
2022-08-17T04:48:52.218Z,72083.50
2022-08-17T04:49:27.181Z,72083.50
2022-08-17T04:50:02.518Z,72079.50
2022-08-17T04:50:35.146Z,72081.50
2022-08-17T04:51:10.533Z,72079.50
2022-08-17T04:51:55.851Z,72087.47
2022-08-17T04:52:43.586Z,72083.50
2022-08-17T04:53:17.394Z,72079.50
2022-08-17T04:53:55.025Z,72077.50
2022-08-17T04:54:27.783Z,72079.50
2022-08-17T04:55:03.787Z,72083.50
2022-08-17T04:55:38.915Z,72083.50
2022-08-17T04:56:16.745Z,72083.50
2022-08-17T04:56:50.641Z,72079.50
2022-08-17T04:57:25.568Z,72081.50
2022-08-17T04:57:57.947Z,72083.50
2022-08-17T04:58:32.988Z,72079.50
2022-08-17T04:59:11.774Z,72083.50
2022-08-17T04:59:44.356Z,72079.50
2022-08-17T05:00:16.862Z,72079.50
2022-08-17T05:00:49.271Z,72081.50
2022-08-17T05:01:25.549Z,72077.50
2022-08-17T05:01:58.170Z,72083.50
2022-08-17T05:02:30.473Z,72079.50
2022-08-17T05:03:05.458Z,72081.50
2022-08-17T05:03:38.078Z,72079.50
2022-08-17T05:04:21.417Z,72077.50
2022-08-17T05:05:07.739Z,72079.50
2022-08-17T05:05:43.245Z,72079.50
2022-08-17T05:06:18.267Z,72085.50
2022-08-17T05:06:51.165Z,72079.50
2022-08-17T05:07:30.888Z,72083.50
2022-08-17T05:08:05.782Z,72083.50
2022-08-17T05:08:38.928Z,72083.50
2022-08-17T05:09:14.336Z,72081.50
2022-08-17T05:09:47.019Z,72083.50
2022-08-17T05:10:20.222Z,72079.50
2022-08-17T05:10:55.141Z,72087.47
2022-08-17T05:11:29.118Z,72083.50
2022-08-17T05:12:01.975Z,72087.47
2022-08-17T05:12:36.854Z,72085.50
2022-08-17T05:13:11.329Z,72087.47
2022-08-17T05:13:50.374Z,72091.47
2022-08-17T05:14:22.864Z,72091.47
2022-08-17T05:15:11.755Z,72091.47
2022-08-17T05:15:48.698Z,72095.47
2022-08-17T05:16:21.807Z,72095.47
2022-08-17T05:16:56.750Z,72097.47
2022-08-17T05:17:29.115Z,72095.47
2022-08-17T05:18:01.495Z,72091.47
2022-08-17T05:18:37.357Z,72091.47
2022-08-17T05:19:09.634Z,72095.47
2022-08-17T05:19:41.993Z,72091.47
2022-08-17T05:20:17.009Z,72093.47
2022-08-17T05:20:49.372Z,72091.47
2022-08-17T05:21:28.772Z,72095.47
2022-08-17T05:22:04.880Z,72089.47
2022-08-17T05:22:37.233Z,72095.47
2022-08-17T05:23:14.997Z,72095.47
2022-08-17T05:23:50.354Z,72095.47
2022-08-17T05:24:43.124Z,72099.47
2022-08-17T05:25:25.734Z,72101.44
2022-08-17T05:26:00.790Z,72095.47
2022-08-17T05:26:34.500Z,72101.44
2022-08-17T05:27:08.813Z,72103.44
2022-08-17T05:27:43.768Z,72097.47
2022-08-17T05:28:17.346Z,72095.47
2022-08-17T05:28:53.750Z,72099.47
2022-08-17T05:29:35.302Z,72095.47
2022-08-17T05:30:09.104Z,72091.47
2022-08-17T05:30:42.777Z,72091.47
2022-08-17T05:31:18.011Z,72091.47
2022-08-17T05:31:50.574Z,72091.47
2022-08-17T05:32:38.185Z,72093.47
2022-08-17T05:33:16.685Z,72091.47
2022-08-17T05:33:49.646Z,72091.47
2022-08-17T05:34:24.595Z,72095.47
2022-08-17T05:35:00.077Z,72095.47
2022-08-17T05:35:35.451Z,72097.47
2022-08-17T05:36:41.933Z,72099.47
2022-08-17T05:37:05.658Z,72107.44
2022-08-17T05:37:40.571Z,72101.44
2022-08-17T05:38:13.275Z,72111.44
2022-08-17T05:38:48.222Z,72107.44
2022-08-17T05:39:20.540Z,72103.44
2022-08-17T05:39:54.096Z,72107.44
2022-08-17T05:40:32.918Z,72103.44
2022-08-17T05:41:07.480Z,72111.44
2022-08-17T05:41:42.551Z,72111.44
2022-08-17T05:42:19.065Z,72111.44
2022-08-17T05:42:51.480Z,72115.44
2022-08-17T05:43:29.644Z,72119.41
2022-08-17T05:44:05.475Z,72111.44
2022-08-17T05:44:40.574Z,72113.44
2022-08-17T05:45:13.195Z,72115.44
2022-08-17T05:45:55.319Z,72119.41
2022-08-17T05:46:43.294Z,72119.41
2022-08-17T05:47:15.659Z,72119.41
2022-08-17T05:47:48.175Z,72113.44
2022-08-17T05:48:39.675Z,72117.41
2022-08-17T05:49:13.341Z,72113.44
2022-08-17T05:49:49.199Z,72117.41
2022-08-17T05:50:27.011Z,72115.44
2022-08-17T05:51:06.389Z,72121.41
2022-08-17T05:51:51.339Z,72119.41
2022-08-17T05:52:27.340Z,72117.41
2022-08-17T05:53:04.171Z,72115.44
2022-08-17T05:53:43.082Z,72117.41
2022-08-17T05:54:29.836Z,72111.44
2022-08-17T05:55:16.314Z,72107.44
2022-08-17T05:55:51.423Z,72119.41
2022-08-17T05:56:39.489Z,72115.44
2022-08-17T05:57:42.393Z,72111.44
2022-08-17T05:58:26.514Z,72109.44
2022-08-17T05:59:08.298Z,72111.44
2022-08-17T05:59:48.449Z,72109.44
2022-08-17T06:00:26.461Z,72119.41
2022-08-17T06:01:05.886Z,72115.44
2022-08-17T06:01:44.391Z,72115.44
2022-08-17T06:02:26.008Z,72115.44
2022-08-17T06:03:16.783Z,72111.44
2022-08-17T06:03:55.873Z,72119.41
2022-08-17T06:04:37.713Z,72117.41
2022-08-17T06:05:18.050Z,72115.44
2022-08-17T06:06:01.431Z,72115.44
2022-08-17T06:06:39.896Z,72119.41
2022-08-17T06:07:17.917Z,72115.44
2022-08-17T06:07:57.014Z,72121.41
2022-08-17T06:08:35.101Z,72119.41
2022-08-17T06:09:28.912Z,72123.41
2022-08-17T06:10:09.969Z,72123.41
2022-08-17T06:10:50.963Z,72121.41
2022-08-17T06:11:28.350Z,72119.41
2022-08-17T06:12:06.791Z,72115.44
2022-08-17T06:12:59.590Z,72115.44
2022-08-17T06:13:43.775Z,72123.41
2022-08-17T06:14:37.831Z,72121.41
2022-08-17T06:15:27.773Z,72117.41
2022-08-17T06:16:32.959Z,72111.44
2022-08-17T06:17:01.341Z,72115.44
2022-08-17T06:17:36.807Z,72115.44
2022-08-17T06:18:10.249Z,72117.41
2022-08-17T06:18:49.634Z,72119.41
2022-08-17T06:19:28.494Z,72111.44
2022-08-17T06:20:07.207Z,72113.44
2022-08-17T06:20:46.535Z,72115.44
2022-08-17T06:21:20.537Z,72115.44
2022-08-17T06:22:02.823Z,72115.44
2022-08-17T06:22:38.254Z,72117.41
2022-08-17T06:23:13.273Z,72115.44
2022-08-17T06:23:51.932Z,72115.44
2022-08-17T06:24:28.709Z,72113.44
2022-08-17T06:25:03.850Z,72115.44
2022-08-17T06:25:47.971Z,72117.41
2022-08-17T06:26:23.305Z,72117.41
2022-08-17T06:27:10.953Z,72111.44
2022-08-17T06:27:47.104Z,72111.44
2022-08-17T06:28:33.027Z,72123.41
2022-08-17T06:29:09.011Z,72119.41
2022-08-17T06:29:58.147Z,72123.41
2022-08-17T06:30:59.522Z,72127.41
2022-08-17T06:31:35.059Z,72135.38
2022-08-17T06:32:13.999Z,72129.41
2022-08-17T06:32:48.992Z,72139.38
2022-08-17T06:33:23.110Z,72137.38
2022-08-17T06:33:59.082Z,72135.38
2022-08-17T06:34:32.127Z,72135.38
2022-08-17T06:35:11.535Z,72139.38
2022-08-17T06:35:52.202Z,72135.38
2022-08-17T06:36:40.303Z,72137.38
2022-08-17T06:37:26.005Z,72139.38
2022-08-17T06:38:04.444Z,72143.38
2022-08-17T06:38:46.809Z,72137.38
2022-08-17T06:39:28.732Z,72147.34
2022-08-17T06:40:18.509Z,72147.34
2022-08-17T06:40:57.620Z,72145.34
2022-08-17T06:41:43.118Z,72151.34
2022-08-17T06:42:54.944Z,72151.34
2022-08-17T06:43:27.454Z,72159.31
2022-08-17T06:44:07.199Z,72155.34
2022-08-17T06:44:51.411Z,72159.31
2022-08-17T06:45:31.431Z,72161.31
2022-08-17T06:46:11.548Z,72163.31
2022-08-17T06:46:48.663Z,72159.31
2022-08-17T06:47:28.932Z,72157.34
2022-08-17T06:48:09.169Z,72159.31
2022-08-17T06:48:50.175Z,72159.31
2022-08-17T06:49:28.794Z,72163.31
2022-08-17T06:50:14.687Z,72159.31
2022-08-17T06:50:50.062Z,72157.34
2022-08-17T06:51:28.395Z,72163.31
2022-08-17T06:52:12.422Z,72163.31
2022-08-17T06:53:14.123Z,72161.31
2022-08-17T06:53:49.522Z,72163.31
2022-08-17T06:54:27.541Z,72161.31
2022-08-17T06:55:05.335Z,72163.31
2022-08-17T06:55:46.691Z,72163.31
2022-08-17T06:56:27.140Z,72163.31
2022-08-17T06:57:25.072Z,72163.31
2022-08-17T06:58:05.903Z,72169.31
2022-08-17T06:58:49.685Z,72167.31
2022-08-17T06:59:54.147Z,72171.31
2022-08-17T07:00:24.129Z,72175.28
2022-08-17T07:01:05.975Z,72171.31
2022-08-17T07:01:39.730Z,72171.31
2022-08-17T07:02:52.317Z,72173.28
2022-08-17T07:03:32.528Z,72175.28
2022-08-17T07:04:12.113Z,72177.28
2022-08-17T07:04:44.882Z,72175.28
2022-08-17T07:05:21.975Z,72179.28
2022-08-17T07:05:56.042Z,72179.28
2022-08-17T07:06:38.041Z,72183.28
2022-08-17T07:07:26.937Z,72183.28
2022-08-17T07:08:02.909Z,72179.28
2022-08-17T07:08:50.374Z,72183.28
2022-08-17T07:09:28.210Z,72187.28
2022-08-17T07:10:04.091Z,72183.28
2022-08-17T07:10:40.026Z,72185.28
2022-08-17T07:11:14.593Z,72183.28
2022-08-17T07:11:53.437Z,72187.28
2022-08-17T07:12:30.034Z,72183.28
2022-08-17T07:13:17.323Z,72189.25
2022-08-17T07:13:59.965Z,72185.28
2022-08-17T07:14:36.824Z,72187.28
2022-08-17T07:15:13.264Z,72193.25
2022-08-17T07:15:51.778Z,72185.28
2022-08-17T07:16:36.437Z,72185.28
2022-08-17T07:17:14.382Z,72189.25
2022-08-17T07:17:48.518Z,72187.28
2022-08-17T07:18:21.526Z,72187.28
2022-08-17T07:18:57.858Z,72187.28
2022-08-17T07:19:32.986Z,72187.28
2022-08-17T07:20:11.087Z,72185.28
2022-08-17T07:20:47.622Z,72179.28
2022-08-17T07:21:38.726Z,72177.28
2022-08-17T07:22:18.817Z,72179.28
2022-08-17T07:22:59.905Z,72175.28